createdAt,value
2018-06-28T00:01:40.074Z,65.48
2018-06-28T00:04:09.686Z,65.64
2018-06-28T00:06:39.352Z,66.36
2018-06-28T00:09:10.086Z,67.77
2018-06-28T00:11:39.847Z,69.25
2018-06-28T00:14:09.486Z,69.51
2018-06-28T00:16:39.106Z,69.28
2018-06-28T00:19:08.810Z,68.83
2018-06-28T00:21:38.920Z,67.60
2018-06-28T00:24:08.554Z,69.63
2018-06-28T00:26:38.158Z,68.38
2018-06-28T00:29:07.786Z,67.56
2018-06-28T00:31:37.398Z,66.94
2018-06-28T00:34:07.158Z,65.27
2018-06-28T00:36:36.782Z,65.86
2018-06-28T00:39:09.630Z,67.62
2018-06-28T00:41:39.572Z,67.38
2018-06-28T00:44:10.306Z,69.23
2018-06-28T00:46:40.322Z,68.94
2018-06-28T00:49:09.983Z,69.08
2018-06-28T00:51:39.695Z,67.61
2018-06-28T00:54:09.403Z,66.44
2018-06-28T00:56:39.022Z,64.81
2018-06-28T00:59:08.698Z,64.44
2018-06-28T01:01:38.386Z,65.30
2018-06-28T01:04:08.170Z,67.74
2018-06-28T01:06:37.801Z,69.23
2018-06-28T01:09:10.903Z,70.21
2018-06-28T01:11:41.054Z,71.18
2018-06-28T01:14:10.704Z,70.52
2018-06-28T01:16:40.321Z,71.60
2018-06-28T01:19:10.103Z,70.14
2018-06-28T01:21:39.741Z,68.72
2018-06-28T01:24:09.642Z,67.94
2018-06-28T01:26:39.286Z,67.26
2018-06-28T01:29:08.907Z,66.77
2018-06-28T01:31:38.559Z,69.78
2018-06-28T01:34:08.170Z,69.70
2018-06-28T01:36:37.847Z,71.31
2018-06-28T01:39:10.962Z,70.78
2018-06-28T01:41:57.354Z,70.96
2018-06-28T01:44:26.946Z,70.03
2018-06-28T01:46:56.588Z,71.50
2018-06-28T01:49:26.219Z,72.99
2018-06-28T01:51:56.089Z,70.83
2018-06-28T01:54:25.938Z,68.28
2018-06-28T01:56:55.611Z,69.31
2018-06-28T01:59:25.181Z,72.15
2018-06-28T02:01:55.026Z,72.01
2018-06-28T02:04:24.667Z,72.66
2018-06-28T02:06:54.295Z,73.21
2018-06-28T02:09:23.971Z,71.84
2018-06-28T02:11:53.663Z,73.15
2018-06-28T02:14:23.266Z,72.47
2018-06-28T02:16:52.973Z,72.00
2018-06-28T02:19:23.046Z,71.76
2018-06-28T02:21:52.685Z,73.24
2018-06-28T02:24:22.354Z,69.80
2018-06-28T02:26:52.005Z,71.75
2018-06-28T02:29:21.899Z,72.04
2018-06-28T02:31:51.510Z,69.62
2018-06-28T02:34:21.106Z,69.21
2018-06-28T02:36:50.723Z,70.88
2018-06-28T02:39:20.438Z,69.50
2018-06-28T02:41:50.094Z,67.95
2018-06-28T02:44:19.941Z,67.85
2018-06-28T02:46:49.564Z,68.01
2018-06-28T02:49:19.201Z,70.01
2018-06-28T02:51:48.855Z,70.45
2018-06-28T02:54:18.490Z,70.70
2018-06-28T02:56:48.126Z,70.39
2018-06-28T02:59:17.743Z,70.86
2018-06-28T03:01:47.370Z,71.85
2018-06-28T03:04:16.938Z,72.71
2018-06-28T03:06:46.526Z,74.41
2018-06-28T03:09:16.131Z,72.22
2018-06-28T03:11:45.784Z,71.35
2018-06-28T03:14:15.736Z,71.00
2018-06-28T03:16:45.542Z,72.16
2018-06-28T03:19:15.175Z,72.10
2018-06-28T03:21:44.822Z,73.03
2018-06-28T03:24:14.485Z,72.27
2018-06-28T03:26:44.102Z,71.91
2018-06-28T03:29:13.741Z,70.52
2018-06-28T03:31:43.594Z,70.45
2018-06-28T03:34:13.174Z,69.51
2018-06-28T03:36:43.200Z,68.33
2018-06-28T03:39:14.198Z,67.36
2018-06-28T03:41:44.086Z,67.72
2018-06-28T03:44:14.147Z,68.52
2018-06-28T03:46:43.822Z,71.51
2018-06-28T03:49:13.586Z,72.11
2018-06-28T03:51:43.404Z,71.72
2018-06-28T03:54:13.131Z,71.91
2018-06-28T03:56:42.960Z,70.63
2018-06-28T03:59:12.590Z,69.01
2018-06-28T04:01:42.268Z,69.42
2018-06-28T04:04:11.900Z,69.51
2018-06-28T04:06:41.592Z,68.79
2018-06-28T04:09:12.490Z,69.98
2018-06-28T04:11:42.226Z,69.53
2018-06-28T04:14:12.055Z,70.36
2018-06-28T04:16:41.637Z,72.97
2018-06-28T04:19:11.307Z,72.20
2018-06-28T04:21:40.923Z,74.50
2018-06-28T04:24:10.639Z,74.41
2018-06-28T04:26:40.587Z,72.18
2018-06-28T04:29:10.513Z,70.45
2018-06-28T04:31:40.819Z,70.11
2018-06-28T04:34:10.438Z,69.49
2018-06-28T04:36:40.078Z,70.50
2018-06-28T04:39:11.629Z,73.12
2018-06-28T04:41:41.298Z,70.54
2018-06-28T04:44:10.967Z,70.82
2018-06-28T04:46:40.558Z,70.36
2018-06-28T04:49:10.188Z,69.10
2018-06-28T04:51:39.794Z,69.21
2018-06-28T04:54:09.446Z,68.10
2018-06-28T04:56:39.125Z,68.41
2018-06-28T04:59:08.817Z,69.96
2018-06-28T05:01:38.434Z,70.62
2018-06-28T05:04:08.098Z,69.45
2018-06-28T05:06:37.707Z,69.60
2018-06-28T05:09:09.408Z,69.74
2018-06-28T05:11:39.570Z,68.82
2018-06-28T05:14:09.584Z,68.36
2018-06-28T05:16:39.201Z,68.03
2018-06-28T05:19:08.839Z,68.19
2018-06-28T05:21:39.186Z,68.67
2018-06-28T05:24:08.850Z,68.05
2018-06-28T05:26:38.719Z,68.18
2018-06-28T05:29:08.364Z,68.57
2018-06-28T05:31:37.974Z,72.16
2018-06-28T05:34:07.618Z,70.69
2018-06-28T05:36:37.838Z,69.65
2018-06-28T05:39:10.434Z,70.50
2018-06-28T05:41:40.046Z,69.08
2018-06-28T05:44:09.674Z,68.93
2018-06-28T05:46:39.498Z,69.55
2018-06-28T05:49:09.182Z,70.15
2018-06-28T05:51:38.790Z,69.91
2018-06-28T05:54:08.175Z,69.31
2018-06-28T05:56:38.061Z,70.90
2018-06-28T05:59:07.666Z,70.69
2018-06-28T06:01:37.316Z,69.24
2018-06-28T06:04:06.916Z,70.16
2018-06-28T06:06:36.541Z,69.02
2018-06-28T06:09:09.361Z,68.71
2018-06-28T06:11:39.054Z,68.49
2018-06-28T06:14:09.886Z,71.04
2018-06-28T06:16:39.535Z,69.24
2018-06-28T06:19:09.178Z,70.87
2018-06-28T06:21:38.826Z,68.45
2018-06-28T06:24:08.502Z,70.14
2018-06-28T06:26:38.590Z,70.75
2018-06-28T06:29:08.281Z,69.52
2018-06-28T06:31:37.932Z,69.32
2018-06-28T06:34:07.592Z,70.32
2018-06-28T06:36:37.199Z,68.87
2018-06-28T06:39:10.321Z,70.68
2018-06-28T06:41:40.082Z,68.57
2018-06-28T06:44:10.138Z,67.11
2018-06-28T06:46:39.866Z,66.80
2018-06-28T06:49:09.545Z,66.88
2018-06-28T06:51:39.182Z,65.38
2018-06-28T06:54:08.774Z,65.89
2018-06-28T06:56:38.398Z,65.80
2018-06-28T06:59:08.062Z,63.18
2018-06-28T07:01:37.693Z,65.88
2018-06-28T07:04:07.290Z,65.59
2018-06-28T07:06:36.936Z,64.64
2018-06-28T07:09:10.751Z,65.57
2018-06-28T07:11:40.613Z,64.99
2018-06-28T07:14:11.274Z,63.81
2018-06-28T07:16:40.958Z,64.29
2018-06-28T07:19:10.587Z,64.46
2018-06-28T07:21:40.526Z,63.74
2018-06-28T07:24:10.174Z,62.99
2018-06-28T07:26:40.291Z,63.35
2018-06-28T07:29:10.639Z,63.48
2018-06-28T07:31:40.515Z,61.99
2018-06-28T07:34:10.409Z,61.29
2018-06-28T07:36:40.067Z,61.64
2018-06-28T07:39:12.507Z,60.79
2018-06-28T07:41:42.477Z,60.52
2018-06-28T07:44:12.150Z,62.71
2018-06-28T07:46:41.865Z,60.51
2018-06-28T07:49:11.924Z,59.53
2018-06-28T07:51:41.652Z,59.75
2018-06-28T07:54:11.516Z,58.57
2018-06-28T07:56:41.204Z,59.21
2018-06-28T07:59:11.446Z,59.35
2018-06-28T08:01:41.413Z,59.25
2018-06-28T08:04:11.308Z,58.88
2018-06-28T08:06:41.006Z,57.89
2018-06-28T08:09:10.803Z,56.53
2018-06-28T08:11:40.796Z,56.13
2018-06-28T08:14:10.519Z,56.34
2018-06-28T08:16:40.248Z,56.21
2018-06-28T08:19:09.946Z,55.56
2018-06-28T08:21:40.005Z,55.52
2018-06-28T08:24:09.712Z,53.41
2018-06-28T08:26:39.760Z,54.83
2018-06-28T08:29:09.450Z,52.72
2018-06-28T08:31:39.115Z,54.74
2018-06-28T08:34:08.807Z,51.85
2018-06-28T08:36:38.931Z,54.03
2018-06-28T08:39:09.639Z,52.99
2018-06-28T08:41:39.422Z,52.70
2018-06-28T08:44:09.127Z,50.81
2018-06-28T08:46:39.142Z,50.42
2018-06-28T08:49:09.048Z,49.86
2018-06-28T08:51:38.787Z,50.86
2018-06-28T08:54:08.639Z,52.67
2018-06-28T08:56:38.378Z,51.70
2018-06-28T08:59:08.082Z,49.23
2018-06-28T09:01:37.967Z,49.32
2018-06-28T09:04:07.856Z,49.77
2018-06-28T09:06:37.630Z,49.45
2018-06-28T09:09:11.682Z,48.79
2018-06-28T09:11:42.073Z,47.95
2018-06-28T09:14:11.931Z,48.62
2018-06-28T09:16:41.645Z,48.48
2018-06-28T09:19:11.405Z,47.82
2018-06-28T09:21:41.134Z,47.14
2018-06-28T09:24:10.939Z,47.80
2018-06-28T09:26:40.798Z,48.46
2018-06-28T09:29:10.686Z,48.79
2018-06-28T09:31:40.594Z,48.04
2018-06-28T09:34:10.322Z,46.31
2018-06-28T09:36:40.157Z,46.08
2018-06-28T09:39:11.510Z,45.22
2018-06-28T09:41:41.406Z,46.09
2018-06-28T09:44:11.127Z,47.08
2018-06-28T09:46:41.162Z,44.03
2018-06-28T09:49:11.011Z,44.03
2018-06-28T09:51:40.975Z,45.68
2018-06-28T09:54:11.009Z,46.19
2018-06-28T09:56:40.739Z,46.01
2018-06-28T09:59:10.622Z,45.55
2018-06-28T10:01:40.510Z,44.19
2018-06-28T10:04:10.230Z,44.17
2018-06-28T10:06:40.141Z,45.13
2018-06-28T10:09:10.463Z,43.88
2018-06-28T10:11:40.261Z,47.05
2018-06-28T10:14:09.965Z,44.83
2018-06-28T10:16:39.735Z,45.40
2018-06-28T10:19:09.732Z,43.83
2018-06-28T10:21:39.558Z,43.89
2018-06-28T10:24:09.462Z,43.35
2018-06-28T10:26:39.342Z,42.37
2018-06-28T10:29:09.088Z,42.33
2018-06-28T10:31:39.091Z,44.40
2018-06-28T10:34:09.182Z,42.42
2018-06-28T10:36:39.011Z,43.13
2018-06-28T10:39:10.757Z,43.34
2018-06-28T10:41:40.738Z,41.98
2018-06-28T10:44:10.497Z,42.62
2018-06-28T10:46:40.430Z,43.00
2018-06-28T10:49:10.611Z,42.71
2018-06-28T10:51:40.282Z,43.11
2018-06-28T10:54:11.056Z,43.94
2018-06-28T10:56:40.975Z,41.06
2018-06-28T10:59:10.880Z,39.97
2018-06-28T11:01:40.688Z,40.38
2018-06-28T11:04:10.027Z,42.30
2018-06-28T11:06:39.773Z,40.85
2018-06-28T11:09:11.237Z,41.63
2018-06-28T11:11:41.624Z,41.55
2018-06-28T11:14:11.482Z,42.66
2018-06-28T11:16:41.286Z,41.53
2018-06-28T11:19:11.116Z,42.44
2018-06-28T11:21:40.614Z,41.39
2018-06-28T11:24:10.686Z,42.69
2018-06-28T11:26:40.430Z,41.29
2018-06-28T11:29:10.402Z,41.57
2018-06-28T11:31:40.410Z,41.74
2018-06-28T11:34:10.830Z,39.81
2018-06-28T11:36:40.889Z,40.50
2018-06-28T11:39:12.252Z,40.99
2018-06-28T11:41:42.221Z,41.18
2018-06-28T11:44:12.599Z,39.51
2018-06-28T11:46:42.333Z,40.89
2018-06-28T11:49:12.111Z,38.91
2018-06-28T11:51:42.334Z,39.66
2018-06-28T11:54:12.123Z,40.17
2018-06-28T11:56:42.075Z,40.18
2018-06-28T11:59:12.033Z,40.71
2018-06-28T12:01:41.671Z,40.24
2018-06-28T12:04:11.708Z,40.14
2018-06-28T12:06:41.627Z,39.18
2018-06-28T12:09:12.349Z,41.65
2018-06-28T12:11:43.534Z,41.46
2018-06-28T12:14:13.482Z,41.64
2018-06-28T12:16:43.427Z,39.52
2018-06-28T12:19:13.355Z,40.81
2018-06-28T12:21:45.188Z,39.08
2018-06-28T12:24:15.128Z,36.66
2018-06-28T12:26:45.261Z,35.46
2018-06-28T12:29:17.591Z,38.35
2018-06-28T12:31:47.711Z,35.58
2018-06-28T12:34:18.435Z,37.79
2018-06-28T12:36:48.307Z,37.59
2018-06-28T12:39:18.185Z,38.75
2018-06-28T12:41:48.058Z,37.32
2018-06-28T12:44:17.839Z,37.95
2018-06-28T12:48:12.478Z,35.15
2018-06-28T12:50:42.382Z,36.48
2018-06-28T12:53:13.512Z,35.81
2018-06-28T12:56:24.971Z,35.61
2018-06-28T12:58:56.512Z,36.05
2018-06-28T13:01:27.574Z,37.36
2018-06-28T13:03:58.130Z,38.35
2018-06-28T13:06:28.122Z,37.95
2018-06-28T13:08:58.879Z,36.24
2018-06-28T13:11:29.473Z,36.98
2018-06-28T13:13:59.318Z,36.23
2018-06-28T13:16:29.837Z,36.51
2018-06-28T13:18:59.646Z,36.61
2018-06-28T13:21:29.866Z,36.85
2018-06-28T13:23:59.669Z,35.85
2018-06-28T13:26:29.842Z,35.77
2018-06-28T13:28:59.791Z,35.63
2018-06-28T13:31:31.338Z,38.62
2018-06-28T13:34:01.356Z,37.23
2018-06-28T13:36:31.248Z,36.37
2018-06-28T13:39:01.281Z,37.65
2018-06-28T13:41:34.392Z,37.32
2018-06-28T13:44:03.820Z,36.15
2018-06-28T13:46:33.729Z,38.07
2018-06-28T13:49:04.317Z,37.73
2018-06-28T13:51:34.337Z,37.74
2018-06-28T13:54:04.230Z,36.21
2018-06-28T13:56:34.048Z,36.91
2018-06-28T13:59:03.855Z,36.75
2018-06-28T14:01:33.686Z,36.01
2018-06-28T14:04:04.159Z,35.58
2018-06-28T14:06:33.998Z,35.61
2018-06-28T14:09:04.198Z,36.34
2018-06-28T14:11:34.151Z,37.16
2018-06-28T14:14:04.148Z,35.86
2018-06-28T14:16:34.556Z,35.64
2018-06-28T14:19:04.491Z,35.84
2018-06-28T14:21:34.467Z,35.07
2018-06-28T14:24:06.739Z,34.95
2018-06-28T14:26:36.931Z,35.73
2018-06-28T14:29:07.046Z,35.79
2018-06-28T14:31:37.120Z,34.89
2018-06-28T14:34:07.198Z,36.50
2018-06-28T14:36:37.090Z,36.08
2018-06-28T14:39:10.900Z,36.63
2018-06-28T14:41:40.736Z,36.11
2018-06-28T14:44:10.584Z,37.24
2018-06-28T14:46:40.611Z,35.83
2018-06-28T14:49:10.746Z,35.71
2018-06-28T14:51:40.706Z,35.54
2018-06-28T14:54:10.595Z,34.19
2018-06-28T14:56:40.578Z,35.38
2018-06-28T14:59:10.485Z,35.43
2018-06-28T15:01:40.638Z,34.15
2018-06-28T15:04:10.708Z,35.48
2018-06-28T15:06:40.894Z,36.04
2018-06-28T15:09:12.366Z,35.19
2018-06-28T15:11:43.014Z,35.76
2018-06-28T15:14:12.918Z,33.96
2018-06-28T15:16:42.671Z,36.42
2018-06-28T15:19:12.653Z,35.00
2018-06-28T15:21:42.529Z,35.33
2018-06-28T15:24:12.444Z,35.45
2018-06-28T15:26:42.259Z,34.54
2018-06-28T15:29:12.087Z,34.20
2018-06-28T15:31:41.963Z,34.46
2018-06-28T15:34:11.766Z,34.33
2018-06-28T15:36:45.081Z,34.39
2018-06-28T15:39:15.270Z,33.91
2018-06-28T15:41:45.362Z,34.72
2018-06-28T15:44:15.146Z,34.56
2018-06-28T15:46:44.917Z,35.26
2018-06-28T15:49:14.847Z,35.49
2018-06-28T15:51:44.666Z,34.84
2018-06-28T15:54:14.851Z,34.09
2018-06-28T15:56:44.838Z,35.27
2018-06-28T15:59:14.636Z,35.18
2018-06-28T16:01:44.995Z,34.47
2018-06-28T16:04:14.885Z,33.96
2018-06-28T16:06:45.143Z,34.25
2018-06-28T16:09:14.930Z,33.45
2018-06-28T16:11:44.760Z,34.86
2018-06-28T16:14:14.732Z,33.52
2018-06-28T16:16:44.606Z,33.54
2018-06-28T16:19:14.415Z,33.50
2018-06-28T16:21:44.284Z,33.84
2018-06-28T16:24:14.221Z,35.10
2018-06-28T16:26:45.972Z,35.00
2018-06-28T16:29:15.791Z,34.65
2018-06-28T16:31:45.470Z,34.47
2018-06-28T16:34:15.341Z,34.92
2018-06-28T16:36:45.183Z,34.37
2018-06-28T16:39:14.931Z,35.05
2018-06-28T16:41:44.718Z,34.13
2018-06-28T16:44:14.511Z,34.97
2018-06-28T16:46:44.232Z,34.66
2018-06-28T16:49:14.106Z,34.42
2018-06-28T16:51:43.906Z,36.06
2018-06-28T16:54:13.842Z,35.50
2018-06-28T16:56:43.835Z,35.49
2018-06-28T16:59:13.807Z,34.81
2018-06-28T17:01:43.645Z,34.83
2018-06-28T17:04:13.406Z,34.96
2018-06-28T17:06:44.906Z,36.55
2018-06-28T17:09:15.126Z,35.70
2018-06-28T17:11:44.871Z,34.92
2018-06-28T17:14:14.763Z,34.93
2018-06-28T17:16:44.842Z,35.25
2018-06-28T17:19:14.706Z,35.42
2018-06-28T17:21:44.378Z,35.45
2018-06-28T17:24:14.343Z,35.36
2018-06-28T17:26:44.250Z,35.54
2018-06-28T17:29:14.056Z,35.60
2018-06-28T17:31:44.027Z,36.49
2018-06-28T17:34:13.892Z,37.03
2018-06-28T17:36:43.797Z,36.31
2018-06-28T17:39:13.678Z,35.55
2018-06-28T17:41:43.553Z,36.60
2018-06-28T17:44:13.513Z,36.05
2018-06-28T17:46:43.818Z,37.58
2018-06-28T17:49:13.766Z,36.48
2018-06-28T17:51:43.386Z,37.92
2018-06-28T17:54:13.444Z,37.26
2018-06-28T17:56:43.466Z,37.49
2018-06-28T17:59:13.331Z,36.76
2018-06-28T18:01:43.084Z,37.36
2018-06-28T18:04:12.578Z,37.17
2018-06-28T18:06:42.594Z,36.53
2018-06-28T18:09:17.587Z,37.22
2018-06-28T18:11:47.794Z,37.52
2018-06-28T18:14:17.727Z,37.95
2018-06-28T18:16:47.514Z,38.51
2018-06-28T18:19:17.434Z,38.09
2018-06-28T18:21:47.226Z,37.70
2018-06-28T18:24:16.860Z,39.58
2018-06-28T18:26:46.822Z,37.82
2018-06-28T18:29:16.676Z,38.99
2018-06-28T18:31:46.554Z,39.25
2018-06-28T18:34:16.455Z,39.04
2018-06-28T18:36:46.233Z,39.40
2018-06-28T18:39:16.222Z,38.01
2018-06-28T18:41:46.012Z,38.46
2018-06-28T18:44:15.906Z,38.77
2018-06-28T18:46:45.878Z,39.46
2018-06-28T18:49:16.146Z,39.29
2018-06-28T18:51:46.213Z,38.89
2018-06-28T18:54:15.949Z,40.12
2018-06-28T18:56:45.738Z,40.04
2018-06-28T18:59:15.864Z,40.71
2018-06-28T19:01:45.712Z,40.23
2018-06-28T19:04:15.789Z,39.73
2018-06-28T19:06:45.500Z,40.12
2018-06-28T19:09:15.463Z,40.68
2018-06-28T19:11:45.490Z,39.92
2018-06-28T19:14:20.401Z,41.56
2018-06-28T19:16:57.270Z,40.83
2018-06-28T19:19:27.111Z,41.33
2018-06-28T19:22:02.048Z,41.82
2018-06-28T19:24:32.561Z,40.64
2018-06-28T19:27:02.419Z,41.28
2018-06-28T19:29:37.539Z,41.50
2018-06-28T19:32:12.671Z,41.90
2018-06-28T19:34:42.597Z,41.70
2018-06-28T19:37:17.598Z,42.20
2018-06-28T19:39:52.563Z,42.03
2018-06-28T19:42:27.314Z,42.12
2018-06-28T19:44:57.442Z,43.39
2018-06-28T19:47:27.177Z,43.78
2018-06-28T19:50:02.011Z,43.34
2018-06-28T19:52:36.971Z,43.07
2018-06-28T19:55:06.924Z,43.77
2018-06-28T19:57:36.620Z,44.54
2018-06-28T20:00:06.656Z,44.72
2018-06-28T20:02:41.715Z,44.78
2018-06-28T20:05:11.451Z,45.20
2018-06-28T20:07:41.353Z,44.40
2018-06-28T20:10:11.204Z,44.91
2018-06-28T20:12:46.245Z,45.56
2018-06-28T20:15:21.078Z,45.46
2018-06-28T20:18:01.872Z,46.45
2018-06-28T20:20:34.171Z,46.70
2018-06-28T20:23:03.953Z,46.32
2018-06-28T20:25:33.765Z,46.71
2018-06-28T20:28:08.436Z,47.39
2018-06-28T20:30:43.240Z,46.79
2018-06-28T20:33:18.174Z,48.02
2018-06-28T20:35:48.090Z,48.71
2018-06-28T20:38:17.758Z,49.00
2018-06-28T20:40:47.442Z,49.02
2018-06-28T20:43:17.123Z,49.04
2018-06-28T20:45:46.923Z,49.84
2018-06-28T20:48:16.813Z,51.17
2018-06-28T20:50:46.551Z,50.56
2018-06-28T20:53:16.317Z,49.05
2018-06-28T20:55:45.954Z,49.08
2018-06-28T20:58:15.610Z,48.77
2018-06-28T21:00:45.379Z,49.58
2018-06-28T21:03:15.014Z,49.38
2018-06-28T21:05:44.695Z,49.92
2018-06-28T21:08:14.357Z,50.77
2018-06-28T21:10:43.986Z,51.27
2018-06-28T21:13:13.600Z,50.06
2018-06-28T21:15:43.261Z,50.30
2018-06-28T21:18:13.014Z,50.11
2018-06-28T21:20:42.682Z,48.63
2018-06-28T21:23:12.629Z,48.78
2018-06-28T21:25:42.378Z,48.68
2018-06-28T21:28:12.068Z,49.12
2018-06-28T21:30:41.733Z,49.08
2018-06-28T21:33:11.666Z,48.55
2018-06-28T21:35:41.376Z,49.22
2018-06-28T21:38:11.083Z,49.84
2018-06-28T21:40:40.790Z,49.58
2018-06-28T21:43:10.425Z,48.71
2018-06-28T21:45:40.038Z,48.90
2018-06-28T21:48:09.672Z,50.08
2018-06-28T21:50:39.338Z,49.50
2018-06-28T21:53:08.976Z,49.54
2018-06-28T21:55:38.769Z,50.44
2018-06-28T21:58:08.330Z,50.57
2018-06-28T22:00:39.039Z,49.62
2018-06-28T22:03:09.360Z,50.28
2018-06-28T22:05:39.022Z,51.16
2018-06-28T22:08:08.915Z,50.54
2018-06-28T22:10:38.393Z,51.64
2018-06-28T22:13:08.053Z,51.50
2018-06-28T22:15:37.746Z,50.16
2018-06-28T22:18:07.409Z,50.97
2018-06-28T22:20:37.109Z,51.49
2018-06-28T22:23:06.785Z,52.11
2018-06-28T22:25:36.470Z,52.45
2018-06-28T22:28:06.229Z,52.11
2018-06-28T22:30:35.918Z,52.40
2018-06-28T22:33:05.629Z,53.56
2018-06-28T22:35:35.282Z,52.73
2018-06-28T22:38:05.062Z,52.78
2018-06-28T22:40:34.745Z,53.36
2018-06-28T22:43:04.400Z,53.13
2018-06-28T22:45:34.090Z,54.06
2018-06-28T22:48:03.816Z,52.96
2018-06-28T22:50:33.478Z,52.38
2018-06-28T22:53:03.169Z,53.19
2018-06-28T22:55:32.862Z,52.63
2018-06-28T22:58:02.526Z,54.07
2018-06-28T23:00:33.061Z,54.66
2018-06-28T23:03:02.750Z,53.80
2018-06-28T23:05:32.459Z,53.27
2018-06-28T23:08:02.194Z,53.13
2018-06-28T23:10:31.900Z,54.14
2018-06-28T23:13:01.790Z,54.56
2018-06-28T23:15:31.109Z,54.81
2018-06-28T23:18:00.805Z,55.51
2018-06-28T23:20:30.437Z,55.54
2018-06-28T23:23:00.568Z,53.61
2018-06-28T23:25:30.390Z,54.47
2018-06-28T23:28:00.074Z,56.28
2018-06-28T23:30:29.806Z,56.05
2018-06-28T23:32:59.752Z,56.08
2018-06-28T23:35:29.438Z,56.42
2018-06-28T23:37:59.073Z,55.55
2018-06-28T23:40:28.751Z,56.53
2018-06-28T23:42:58.354Z,57.05
2018-06-28T23:45:28.035Z,56.52
2018-06-28T23:47:57.677Z,57.22
2018-06-28T23:50:27.346Z,57.55
2018-06-28T23:52:56.973Z,57.83
2018-06-28T23:55:26.639Z,57.40
2018-06-28T23:57:56.259Z,57.64
